createdAt,value
2022-07-25T00:00:51.217Z,42.25
2022-07-25T00:03:56.601Z,42.31
2022-07-25T00:07:00.657Z,42.38
2022-07-25T00:10:06.275Z,42.37
2022-07-25T00:13:13.408Z,42.25
2022-07-25T00:16:18.153Z,42.17
2022-07-25T00:19:22.292Z,41.79
2022-07-25T00:22:25.940Z,41.99
2022-07-25T00:25:29.958Z,42.61
2022-07-25T00:28:35.496Z,42.61
2022-07-25T00:31:39.846Z,42.79
2022-07-25T00:34:43.128Z,42.95
2022-07-25T00:37:46.075Z,42.95
2022-07-25T00:40:55.668Z,43.56
2022-07-25T00:44:01.036Z,44.52
2022-07-25T00:47:04.204Z,45.47
2022-07-25T00:50:07.952Z,45.34
2022-07-25T00:53:14.371Z,45.68
2022-07-25T00:56:20.071Z,45.76
2022-07-25T00:59:28.887Z,46.13
2022-07-25T01:02:32.093Z,46.24
2022-07-25T01:05:35.681Z,46.42
2022-07-25T01:08:39.750Z,46.53
2022-07-25T01:11:43.261Z,46.52
2022-07-25T01:14:46.210Z,46.27
2022-07-25T01:17:51.248Z,46.07
2022-07-25T01:20:53.891Z,46.52
2022-07-25T01:23:56.971Z,47.17
2022-07-25T01:27:00.769Z,47.31
2022-07-25T01:30:09.218Z,47.43
2022-07-25T01:33:17.433Z,47.61
2022-07-25T01:36:20.688Z,47.46
2022-07-25T01:39:23.478Z,47.41
2022-07-25T01:42:28.635Z,47.87
2022-07-25T01:45:33.014Z,47.80
2022-07-25T01:48:37.159Z,48.07
2022-07-25T01:51:43.061Z,48.61
2022-07-25T01:54:47.363Z,49.33
2022-07-25T01:57:52.258Z,49.22
2022-07-25T02:00:56.680Z,49.09
2022-07-25T02:04:04.691Z,48.87
2022-07-25T02:07:09.244Z,49.55
2022-07-25T02:10:13.856Z,49.36
2022-07-25T02:13:16.795Z,49.57
2022-07-25T02:16:29.212Z,50.05
2022-07-25T02:19:32.588Z,50.40
2022-07-25T02:22:36.883Z,50.42
2022-07-25T02:25:39.863Z,50.56
2022-07-25T02:28:44.460Z,51.22
2022-07-25T02:31:50.963Z,51.66
2022-07-25T02:34:54.761Z,52.12
2022-07-25T02:37:58.477Z,52.86
2022-07-25T02:41:02.512Z,52.92
2022-07-25T02:44:08.098Z,53.62
2022-07-25T02:47:16.367Z,54.67
2022-07-25T02:50:20.963Z,54.00
2022-07-25T02:53:47.074Z,53.50
2022-07-25T02:56:50.035Z,53.35
2022-07-25T02:59:53.451Z,53.52
2022-07-25T03:02:58.772Z,53.22
2022-07-25T03:06:02.491Z,53.13
2022-07-25T03:09:06.476Z,53.80
2022-07-25T03:12:11.277Z,53.25
2022-07-25T03:15:14.685Z,53.73
2022-07-25T03:18:17.875Z,53.32
2022-07-25T03:21:21.336Z,53.04
2022-07-25T03:24:25.015Z,52.67
2022-07-25T03:27:28.204Z,52.82
2022-07-25T03:30:32.148Z,53.66
2022-07-25T03:33:35.772Z,53.75
2022-07-25T03:36:39.139Z,53.57
2022-07-25T03:39:42.756Z,54.97
2022-07-25T03:42:46.002Z,54.35
2022-07-25T03:45:49.661Z,54.87
2022-07-25T03:48:53.365Z,55.46
2022-07-25T03:51:57.056Z,55.42
2022-07-25T03:55:01.487Z,54.63
2022-07-25T03:58:04.831Z,55.54
2022-07-25T04:01:08.680Z,55.26
2022-07-25T04:04:19.491Z,55.85
2022-07-25T04:07:24.679Z,55.88
2022-07-25T04:10:29.174Z,55.13
2022-07-25T04:13:33.448Z,54.91
2022-07-25T04:16:39.352Z,56.01
2022-07-25T04:19:49.562Z,56.04
2022-07-25T04:22:53.352Z,55.10
2022-07-25T04:26:00.478Z,55.64
2022-07-25T04:29:18.932Z,56.50
2022-07-25T04:32:28.570Z,56.83
2022-07-25T04:35:32.235Z,57.22
2022-07-25T04:38:38.897Z,57.04
2022-07-25T04:41:42.354Z,56.78
2022-07-25T04:44:50.331Z,55.45
2022-07-25T04:47:56.935Z,54.95
2022-07-25T04:51:05.217Z,55.27
2022-07-25T04:54:14.675Z,55.23
2022-07-25T04:57:19.360Z,54.69
2022-07-25T05:00:27.963Z,54.41
2022-07-25T05:03:35.106Z,53.05
2022-07-25T05:06:58.322Z,53.29
2022-07-25T05:10:02.219Z,54.31
2022-07-25T05:16:51.745Z,52.95
2022-07-25T05:19:58.949Z,53.08
2022-07-25T05:23:11.008Z,52.70
2022-07-25T05:30:25.620Z,52.35
2022-07-25T05:33:32.817Z,51.52
2022-07-25T05:36:45.474Z,51.82
2022-07-25T05:40:16.291Z,51.04
2022-07-25T05:43:40.530Z,50.47
2022-07-25T05:46:45.196Z,49.06
2022-07-25T05:49:51.918Z,48.16
2022-07-25T05:52:59.380Z,47.78
2022-07-25T05:56:15.969Z,46.91
2022-07-25T05:59:19.800Z,46.47
2022-07-25T06:02:23.281Z,45.90
2022-07-25T06:05:26.971Z,45.67
2022-07-25T06:08:31.187Z,44.95
2022-07-25T06:11:34.336Z,44.18
2022-07-25T06:14:39.919Z,45.09
2022-07-25T06:17:44.193Z,44.32
2022-07-25T06:20:49.657Z,43.97
2022-07-25T06:23:53.479Z,43.48
2022-07-25T06:26:57.500Z,45.29
2022-07-25T06:30:00.827Z,43.92
2022-07-25T06:33:03.924Z,43.65
2022-07-25T06:36:07.664Z,42.83
2022-07-25T06:39:11.107Z,42.57
2022-07-25T06:46:53.855Z,42.89
2022-07-25T06:49:58.999Z,42.01
2022-07-25T06:53:02.799Z,41.45
2022-07-25T07:01:03.847Z,41.10
2022-07-25T07:04:33.667Z,40.62
2022-07-25T07:07:37.087Z,39.89
2022-07-25T07:10:40.822Z,40.19
2022-07-25T07:13:44.947Z,40.60
2022-07-25T07:16:48.110Z,39.88
2022-07-25T07:19:53.597Z,39.98
2022-07-25T07:23:45.160Z,39.73
2022-07-25T07:26:55.665Z,39.32
2022-07-25T07:34:19.000Z,39.27
2022-07-25T07:37:22.815Z,37.67
2022-07-25T07:40:29.165Z,37.87
2022-07-25T07:43:46.584Z,36.63
2022-07-25T07:46:50.589Z,36.80
2022-07-25T07:49:59.946Z,36.83
2022-07-25T07:58:21.006Z,37.05
2022-07-25T08:05:46.716Z,35.09
2022-07-25T08:39:05.757Z,33.47
2022-07-25T08:42:13.421Z,32.85
2022-07-25T08:45:21.515Z,33.32
2022-07-25T08:48:45.778Z,32.52
2022-07-25T08:51:54.025Z,32.34
2022-07-25T08:55:10.961Z,33.12
2022-07-25T08:58:19.006Z,32.74
2022-07-25T09:06:00.790Z,32.89
2022-07-25T09:16:59.590Z,33.04
2022-07-25T09:24:40.375Z,32.07
2022-07-25T09:27:43.719Z,31.31
2022-07-25T09:30:57.878Z,31.54
2022-07-25T09:34:08.671Z,31.53
2022-07-25T09:45:03.339Z,30.13
2022-07-25T09:48:43.963Z,30.01
2022-07-25T09:51:48.906Z,30.84
2022-07-25T09:54:55.476Z,30.49
2022-07-25T09:58:02.891Z,29.92
2022-07-25T10:01:42.951Z,30.09
2022-07-25T10:05:33.954Z,29.35
2022-07-25T10:08:42.338Z,28.01
2022-07-25T10:12:08.047Z,29.19
2022-07-25T10:15:14.543Z,28.59
2022-07-25T10:18:21.887Z,28.56
2022-07-25T10:21:29.773Z,27.03
2022-07-25T10:29:23.012Z,27.38
2022-07-25T10:32:35.532Z,26.22
2022-07-25T10:35:56.406Z,26.91
2022-07-25T10:43:20.079Z,27.16
2022-07-25T10:46:27.380Z,26.62
2022-07-25T10:50:13.471Z,27.69
2022-07-25T10:53:11.940Z,27.47
2022-07-25T10:56:16.305Z,27.10
2022-07-25T10:59:47.775Z,26.60
2022-07-25T11:03:08.235Z,28.08
2022-07-25T11:06:33.801Z,27.52
2022-07-25T11:09:57.090Z,27.72
2022-07-25T11:13:21.869Z,27.52
2022-07-25T11:16:29.608Z,27.17
2022-07-25T11:19:35.853Z,26.25
2022-07-25T11:22:40.013Z,26.17
2022-07-25T11:25:43.856Z,26.32
2022-07-25T11:28:49.415Z,26.41
2022-07-25T11:32:08.626Z,25.55
2022-07-25T11:35:13.489Z,25.65
2022-07-25T11:38:17.120Z,24.77
2022-07-25T11:41:29.967Z,22.36
2022-07-25T11:44:48.337Z,24.10
2022-07-25T11:48:08.581Z,24.26
2022-07-25T11:51:18.874Z,23.24
2022-07-25T11:54:22.830Z,22.78
2022-07-25T12:02:02.679Z,23.09
2022-07-25T12:05:13.121Z,22.77
2022-07-25T12:08:18.655Z,23.44
2022-07-25T12:11:29.609Z,22.99
2022-07-25T12:14:47.717Z,22.34
2022-07-25T12:17:52.549Z,22.12
2022-07-25T12:20:55.772Z,21.91
2022-07-25T12:23:59.173Z,22.49
2022-07-25T12:27:02.116Z,22.09
2022-07-25T12:30:10.122Z,21.64
2022-07-25T12:33:13.616Z,21.69
2022-07-25T12:36:18.716Z,21.25
2022-07-25T12:39:21.875Z,20.63
2022-07-25T12:42:26.065Z,20.10
2022-07-25T12:45:30.347Z,20.21
2022-07-25T12:48:37.471Z,19.84
2022-07-25T12:51:45.403Z,19.60
2022-07-25T12:54:51.039Z,18.99
2022-07-25T12:57:54.269Z,18.66
2022-07-25T13:01:01.895Z,19.27
2022-07-25T13:04:09.306Z,18.77
2022-07-25T13:07:16.370Z,18.49
2022-07-25T13:10:38.590Z,17.90
2022-07-25T13:13:42.791Z,17.54
2022-07-25T13:16:47.330Z,15.88
2022-07-25T13:19:50.563Z,17.36
2022-07-25T13:22:53.391Z,15.69
2022-07-25T13:25:56.690Z,16.70
2022-07-25T13:29:00.305Z,18.10
2022-07-25T13:32:04.104Z,17.13
2022-07-25T13:35:20.394Z,17.46
2022-07-25T13:38:24.411Z,17.21
2022-07-25T13:41:27.986Z,17.21
2022-07-25T13:48:28.441Z,17.31
2022-07-25T13:51:29.843Z,16.97
2022-07-25T13:54:35.379Z,15.99
2022-07-25T13:57:38.481Z,15.88
2022-07-25T14:00:42.262Z,17.01
2022-07-25T14:04:11.538Z,16.60
2022-07-25T14:07:35.781Z,15.50
2022-07-25T14:14:31.331Z,14.38
2022-07-25T14:17:39.112Z,13.86
2022-07-25T14:28:06.260Z,15.91
2022-07-25T14:35:48.801Z,15.68
2022-07-25T14:38:56.082Z,15.72
2022-07-25T14:41:59.617Z,14.38
2022-07-25T14:45:04.558Z,14.66
2022-07-25T14:48:08.882Z,14.39
2022-07-25T14:54:58.758Z,15.31
2022-07-25T14:58:05.617Z,13.90
2022-07-25T15:01:09.593Z,14.73
2022-07-25T15:04:33.362Z,14.32
2022-07-25T15:16:07.260Z,15.02
2022-07-25T15:19:18.242Z,13.94
2022-07-25T15:22:21.503Z,14.75
2022-07-25T15:26:00.116Z,12.09
2022-07-25T15:28:48.887Z,11.13
2022-07-25T15:32:03.616Z,12.78
2022-07-25T15:35:09.639Z,12.73
2022-07-25T15:38:14.090Z,12.39
2022-07-25T15:41:23.138Z,11.06
2022-07-25T15:44:26.433Z,13.20
2022-07-25T15:52:55.844Z,12.29
2022-07-25T15:55:44.198Z,11.53
2022-07-25T15:59:00.285Z,10.69
2022-07-25T16:02:08.480Z,11.86
2022-07-25T16:05:11.446Z,13.10
2022-07-25T16:08:18.279Z,10.67
2022-07-25T16:11:21.901Z,9.89
2022-07-25T16:14:26.440Z,10.22
2022-07-25T16:17:31.165Z,11.21
2022-07-25T16:20:34.224Z,10.58
2022-07-25T20:02:17.681Z,29.90
2022-07-25T20:05:28.525Z,29.22
2022-07-25T20:08:40.494Z,29.00
2022-07-25T20:12:09.111Z,29.09
2022-07-25T20:16:16.916Z,28.55
2022-07-25T20:24:14.206Z,28.78
2022-07-25T20:27:21.131Z,28.43
2022-07-25T20:31:04.756Z,28.35
2022-07-25T20:35:15.460Z,28.70
2022-07-25T20:39:03.929Z,30.49
2022-07-25T21:01:58.338Z,34.99
2022-07-25T21:05:02.364Z,35.62
2022-07-25T21:08:07.014Z,35.63
2022-07-25T21:11:45.996Z,35.72
2022-07-25T21:19:05.016Z,34.32
2022-07-25T21:22:10.664Z,34.63
2022-07-25T21:25:15.396Z,35.15
2022-07-25T21:28:19.110Z,35.22
2022-07-25T21:31:27.001Z,34.87
2022-07-25T21:34:30.947Z,35.21
2022-07-25T21:37:34.586Z,35.24
2022-07-25T21:40:40.611Z,35.80
2022-07-25T21:43:45.478Z,35.82
2022-07-25T21:46:54.958Z,35.81
2022-07-25T21:50:31.909Z,36.20
2022-07-25T21:53:42.545Z,36.09
2022-07-25T21:56:46.345Z,36.21
2022-07-25T21:59:50.410Z,36.48
2022-07-25T22:02:57.511Z,36.63
2022-07-25T22:06:03.251Z,36.55
2022-07-25T22:09:07.639Z,35.75
2022-07-25T22:12:11.415Z,34.79
2022-07-25T22:15:16.613Z,34.12
2022-07-25T22:18:23.821Z,33.72
2022-07-25T22:21:29.154Z,33.04
2022-07-25T22:24:46.750Z,31.87
2022-07-25T22:27:55.008Z,33.97
2022-07-25T22:30:59.103Z,33.76
2022-07-25T22:34:02.533Z,34.58
2022-07-25T22:37:06.060Z,35.08
2022-07-25T22:40:33.932Z,35.19
2022-07-25T22:43:57.278Z,37.37
2022-07-25T22:47:02.418Z,37.32
2022-07-25T22:50:09.911Z,38.61
2022-07-25T22:53:13.724Z,38.53
2022-07-25T22:56:17.697Z,38.84
2022-07-25T22:59:28.350Z,38.94
2022-07-25T23:02:35.180Z,38.12
2022-07-25T23:05:40.645Z,37.81
2022-07-25T23:08:50.498Z,37.77
2022-07-25T23:11:54.978Z,38.15
2022-07-25T23:15:19.013Z,38.39
2022-07-25T23:22:13.437Z,38.18
2022-07-25T23:25:16.836Z,38.88
2022-07-25T23:28:21.141Z,38.51
2022-07-25T23:31:24.435Z,38.30
2022-07-25T23:34:27.584Z,37.93
2022-07-25T23:37:31.529Z,37.38
2022-07-25T23:40:35.075Z,37.33
2022-07-25T23:43:56.038Z,37.00
2022-07-25T23:47:00.465Z,37.16
2022-07-25T23:50:06.261Z,37.07
2022-07-25T23:53:39.106Z,34.21
2022-07-25T23:57:23.362Z,33.58
